createdAt,value
2018-07-14T00:01:47.387Z,66.89
2018-07-14T00:04:16.750Z,67.28
2018-07-14T00:06:46.087Z,67.66
2018-07-14T00:09:15.595Z,67.21
2018-07-14T00:11:44.945Z,66.82
2018-07-14T00:14:14.313Z,66.88
2018-07-14T00:16:43.727Z,66.58
2018-07-14T00:19:13.767Z,66.11
2018-07-14T00:21:43.097Z,66.73
2018-07-14T00:24:12.445Z,66.91
2018-07-14T00:26:41.943Z,66.55
2018-07-14T00:29:11.270Z,66.15
2018-07-14T00:31:40.642Z,66.92
2018-07-14T00:34:10.049Z,66.98
2018-07-14T00:36:39.363Z,67.10
2018-07-14T00:39:08.729Z,66.64
2018-07-14T00:41:38.100Z,67.20
2018-07-14T00:44:07.368Z,67.32
2018-07-14T00:46:36.691Z,67.17
2018-07-14T00:49:06.259Z,67.17
2018-07-14T00:51:35.630Z,66.95
2018-07-14T00:54:05.025Z,67.49
2018-07-14T00:56:34.394Z,66.82
2018-07-14T00:59:03.706Z,66.98
2018-07-14T01:01:32.979Z,67.35
2018-07-14T01:04:02.386Z,67.31
2018-07-14T01:06:31.678Z,67.74
2018-07-14T01:09:00.974Z,67.38
2018-07-14T01:11:30.290Z,67.16
2018-07-14T01:13:59.577Z,67.44
2018-07-14T01:16:28.870Z,66.76
2018-07-14T01:18:58.208Z,66.64
2018-07-14T01:21:27.527Z,66.92
2018-07-14T01:23:56.573Z,66.77
2018-07-14T01:26:26.207Z,67.12
2018-07-14T01:28:55.850Z,66.89
2018-07-14T01:31:25.189Z,67.06
2018-07-14T01:33:54.519Z,66.59
2018-07-14T01:36:23.906Z,66.67
2018-07-14T01:38:53.343Z,67.16
2018-07-14T01:41:22.741Z,67.25
2018-07-14T01:43:51.806Z,67.40
2018-07-14T01:46:21.125Z,66.93
2018-07-14T01:48:50.820Z,66.51
2018-07-14T01:51:20.153Z,66.76
2018-07-14T01:53:49.507Z,66.94
2018-07-14T01:56:18.856Z,67.61
2018-07-14T01:58:48.214Z,67.17
2018-07-14T02:01:17.556Z,67.78
2018-07-14T02:03:46.962Z,68.43
2018-07-14T02:06:16.330Z,67.72
2018-07-14T02:08:45.667Z,68.12
2018-07-14T02:11:15.676Z,67.08
2018-07-14T02:13:45.014Z,67.64
2018-07-14T02:16:14.391Z,68.52
2018-07-14T02:18:43.716Z,68.12
2018-07-14T02:21:13.028Z,68.87
2018-07-14T02:23:42.341Z,68.65
2018-07-14T02:26:11.690Z,68.11
2018-07-14T02:28:40.991Z,68.40
2018-07-14T02:31:10.331Z,68.27
2018-07-14T02:33:40.195Z,67.64
2018-07-14T02:36:09.535Z,67.70
2018-07-14T02:38:38.848Z,67.21
2018-07-14T02:41:08.271Z,67.33
2018-07-14T02:43:37.628Z,67.67
2018-07-14T02:46:07.042Z,67.75
2018-07-14T02:48:36.407Z,67.42
2018-07-14T02:51:05.758Z,67.22
2018-07-14T02:53:35.149Z,67.35
2018-07-14T02:56:04.622Z,67.20
2018-07-14T02:58:33.952Z,67.16
2018-07-14T03:01:03.323Z,67.46
2018-07-14T03:03:32.748Z,66.84
2018-07-14T03:06:01.843Z,68.12
2018-07-14T03:08:31.318Z,67.77
2018-07-14T03:11:00.678Z,67.47
2018-07-14T03:13:30.007Z,67.75
2018-07-14T03:15:59.382Z,67.62
2018-07-14T03:18:29.265Z,68.77
2018-07-14T03:20:58.620Z,68.86
2018-07-14T03:23:27.974Z,69.64
2018-07-14T03:25:57.330Z,70.54
2018-07-14T03:28:26.597Z,69.52
2018-07-14T03:30:55.932Z,70.00
2018-07-14T03:33:25.273Z,69.48
2018-07-14T03:35:54.605Z,69.80
2018-07-14T03:38:24.084Z,69.33
2018-07-14T03:40:53.787Z,69.87
2018-07-14T03:43:23.149Z,70.90
2018-07-14T03:45:52.516Z,70.14
2018-07-14T03:48:21.912Z,70.01
2018-07-14T03:50:51.448Z,70.18
2018-07-14T03:53:20.726Z,70.51
2018-07-14T03:55:50.111Z,70.18
2018-07-14T03:58:19.402Z,70.04
2018-07-14T04:00:48.706Z,70.55
2018-07-14T04:03:21.651Z,70.30
2018-07-14T04:05:53.220Z,69.32
2018-07-14T04:08:25.299Z,68.60
2018-07-14T04:10:54.604Z,67.25
2018-07-14T04:13:24.321Z,67.60
2018-07-14T04:15:53.666Z,68.04
2018-07-14T04:18:22.945Z,67.71
2018-07-14T04:20:52.294Z,68.65
2018-07-14T04:23:22.135Z,68.56
2018-07-14T04:25:51.462Z,68.98
2018-07-14T04:28:20.759Z,69.10
2018-07-14T04:30:50.041Z,68.61
2018-07-14T04:33:19.351Z,68.52
2018-07-14T04:35:49.179Z,68.20
2018-07-14T04:38:18.314Z,66.75
2018-07-14T04:40:47.658Z,67.74
2018-07-14T04:43:16.982Z,66.78
2018-07-14T04:45:46.696Z,66.45
2018-07-14T04:48:16.021Z,66.54
2018-07-14T04:50:45.467Z,66.95
2018-07-14T04:53:14.927Z,67.42
2018-07-14T04:55:44.159Z,67.57
2018-07-14T04:58:13.493Z,67.02
2018-07-14T05:00:42.810Z,67.37
2018-07-14T05:03:11.882Z,66.93
2018-07-14T05:05:41.195Z,66.60
2018-07-14T05:08:11.187Z,66.88
2018-07-14T05:10:40.523Z,66.45
2018-07-14T05:13:09.876Z,65.85
2018-07-14T05:15:39.224Z,65.11
2018-07-14T05:18:08.552Z,65.80
2018-07-14T05:20:37.848Z,66.17
2018-07-14T05:23:07.233Z,65.08
2018-07-14T05:25:36.600Z,65.71
2018-07-14T05:28:06.032Z,66.32
2018-07-14T05:30:35.477Z,65.85
2018-07-14T05:33:04.876Z,64.79
2018-07-14T05:35:34.820Z,65.36
2018-07-14T05:38:04.466Z,64.73
2018-07-14T05:40:33.848Z,65.53
2018-07-14T05:43:03.115Z,65.14
2018-07-14T05:45:32.535Z,64.28
2018-07-14T05:48:01.854Z,63.56
2018-07-14T05:50:31.119Z,64.04
2018-07-14T05:53:00.835Z,64.23
2018-07-14T05:55:30.184Z,64.22
2018-07-14T05:57:59.705Z,63.67
2018-07-14T06:00:29.096Z,63.50
2018-07-14T06:02:58.428Z,63.91
2018-07-14T06:05:27.735Z,62.95
2018-07-14T06:07:57.079Z,64.11
2018-07-14T06:10:26.463Z,63.88
2018-07-14T06:12:55.758Z,63.25
2018-07-14T06:15:25.436Z,63.65
2018-07-14T06:17:54.750Z,63.56
2018-07-14T06:20:24.037Z,63.43
2018-07-14T06:22:53.382Z,63.62
2018-07-14T06:25:22.712Z,63.92
2018-07-14T06:27:52.043Z,63.36
2018-07-14T06:30:21.858Z,63.55
2018-07-14T06:32:51.265Z,62.44
2018-07-14T06:35:20.589Z,62.11
2018-07-14T06:37:49.955Z,62.05
2018-07-14T06:40:19.263Z,61.74
2018-07-14T06:42:48.554Z,62.79
2018-07-14T06:45:17.874Z,63.94
2018-07-14T06:47:47.198Z,63.05
2018-07-14T06:50:16.472Z,61.28
2018-07-14T06:52:45.941Z,61.48
2018-07-14T06:55:15.312Z,60.93
2018-07-14T06:57:44.738Z,60.21
2018-07-14T07:00:24.503Z,60.18
2018-07-14T07:02:53.849Z,59.20
2018-07-14T07:05:23.242Z,58.66
2018-07-14T07:07:52.564Z,58.86
2018-07-14T07:10:21.916Z,58.05
2018-07-14T07:12:51.209Z,58.45
2018-07-14T07:15:20.605Z,58.07
2018-07-14T07:17:49.965Z,57.08
2018-07-14T07:20:19.711Z,56.50
2018-07-14T07:22:49.031Z,55.45
2018-07-14T07:25:18.367Z,55.35
2018-07-14T07:27:47.791Z,54.52
2018-07-14T07:30:17.247Z,55.06
2018-07-14T07:32:46.743Z,55.61
2018-07-14T07:35:15.941Z,55.41
2018-07-14T07:37:45.426Z,54.34
2018-07-14T07:40:14.804Z,53.99
2018-07-14T07:42:44.352Z,54.65
2018-07-14T07:45:13.693Z,53.39
2018-07-14T07:47:43.052Z,53.31
2018-07-14T07:50:12.460Z,53.44
2018-07-14T07:52:41.608Z,54.02
2018-07-14T07:55:10.931Z,53.47
2018-07-14T07:57:40.315Z,53.62
2018-07-14T08:00:09.859Z,53.00
2018-07-14T08:02:39.404Z,53.13
2018-07-14T08:05:09.020Z,53.79
2018-07-14T08:07:38.410Z,53.33
2018-07-14T08:10:07.986Z,53.39
2018-07-14T08:12:37.400Z,52.75
2018-07-14T08:15:06.786Z,51.91
2018-07-14T08:17:36.187Z,51.03
2018-07-14T08:20:05.907Z,50.52
2018-07-14T08:22:35.240Z,49.16
2018-07-14T08:25:07.443Z,49.87
2018-07-14T08:27:36.710Z,48.92
2018-07-14T08:30:06.382Z,48.92
2018-07-14T08:32:35.723Z,48.08
2018-07-14T08:35:05.190Z,48.18
2018-07-14T08:37:34.591Z,47.84
2018-07-14T08:40:04.206Z,46.82
2018-07-14T08:42:33.593Z,47.19
2018-07-14T08:45:02.904Z,47.09
2018-07-14T08:47:32.542Z,46.85
2018-07-14T08:50:01.908Z,47.74
2018-07-14T08:52:31.307Z,46.95
2018-07-14T08:55:00.772Z,47.53
2018-07-14T08:57:30.661Z,46.48
2018-07-14T09:00:00.037Z,45.33
2018-07-14T09:02:29.684Z,45.32
2018-07-14T09:04:59.125Z,45.42
2018-07-14T09:07:28.549Z,45.64
2018-07-14T09:09:58.119Z,45.90
2018-07-14T09:12:27.957Z,45.21
2018-07-14T09:14:57.394Z,45.15
2018-07-14T09:17:26.782Z,44.96
2018-07-14T09:19:56.198Z,45.97
2018-07-14T09:22:25.583Z,45.14
2018-07-14T09:24:54.919Z,45.30
2018-07-14T09:27:24.269Z,46.54
2018-07-14T09:29:53.586Z,46.21
2018-07-14T09:32:23.319Z,46.32
2018-07-14T09:34:52.675Z,47.33
2018-07-14T09:37:21.980Z,47.42
2018-07-14T09:39:51.382Z,48.15
2018-07-14T09:42:20.743Z,48.00
2018-07-14T09:44:50.091Z,48.76
2018-07-14T09:47:19.434Z,48.51
2018-07-14T09:49:48.783Z,48.91
2018-07-14T09:52:18.143Z,48.67
2018-07-14T09:54:48.072Z,49.38
2018-07-14T09:57:17.376Z,48.24
2018-07-14T09:59:46.731Z,47.05
2018-07-14T10:02:16.183Z,46.29
2018-07-14T10:04:45.521Z,46.91
2018-07-14T10:07:14.835Z,46.17
2018-07-14T10:09:44.204Z,44.93
2018-07-14T10:12:13.633Z,44.74
2018-07-14T10:14:42.997Z,45.51
2018-07-14T10:17:13.062Z,43.95
2018-07-14T10:19:42.413Z,44.60
2018-07-14T10:22:11.822Z,44.88
2018-07-14T10:24:41.138Z,45.30
2018-07-14T10:27:10.581Z,44.82
2018-07-14T10:29:40.123Z,45.39
2018-07-14T10:32:10.915Z,44.37
2018-07-14T10:34:40.268Z,45.64
2018-07-14T10:37:09.804Z,45.00
2018-07-14T10:39:39.417Z,45.12
2018-07-14T10:42:08.828Z,46.46
2018-07-14T10:44:38.241Z,46.26
2018-07-14T10:47:07.707Z,46.72
2018-07-14T10:49:37.128Z,46.34
2018-07-14T10:52:06.779Z,46.69
2018-07-14T10:54:36.246Z,46.83
2018-07-14T10:57:05.798Z,47.69
2018-07-14T10:59:35.174Z,47.70
2018-07-14T11:02:04.759Z,46.78
2018-07-14T11:04:34.206Z,47.89
2018-07-14T11:07:06.502Z,47.66
2018-07-14T11:09:36.007Z,48.02
2018-07-14T11:12:05.385Z,48.47
2018-07-14T11:14:34.845Z,48.30
2018-07-14T11:17:04.579Z,47.44
2018-07-14T11:19:33.853Z,46.78
2018-07-14T11:22:04.399Z,46.66
2018-07-14T11:24:33.749Z,45.93
2018-07-14T11:27:03.225Z,44.12
2018-07-14T11:29:32.660Z,43.19
2018-07-14T11:32:02.083Z,42.98
2018-07-14T11:34:31.469Z,42.25
2018-07-14T11:37:00.907Z,42.69
2018-07-14T11:39:30.485Z,40.69
2018-07-14T11:41:59.904Z,40.09
2018-07-14T11:44:29.549Z,40.28
2018-07-14T11:47:00.155Z,40.63
2018-07-14T11:49:30.352Z,38.77
2018-07-14T11:52:00.180Z,39.36
2018-07-14T11:54:29.902Z,39.83
2018-07-14T11:56:59.478Z,38.77
2018-07-14T11:59:29.138Z,39.38
2018-07-14T12:01:58.687Z,39.23
2018-07-14T12:04:28.564Z,39.79
2018-07-14T12:06:58.078Z,38.65
2018-07-14T12:09:27.450Z,37.26
2018-07-14T12:11:56.981Z,37.85
2018-07-14T12:14:26.420Z,37.14
2018-07-14T12:16:55.913Z,36.86
2018-07-14T12:19:25.307Z,36.25
2018-07-14T12:21:54.784Z,37.42
2018-07-14T12:24:24.159Z,36.29
2018-07-14T12:26:53.827Z,36.59
2018-07-14T12:29:23.159Z,35.65
2018-07-14T12:31:52.505Z,36.37
2018-07-14T12:34:22.199Z,35.65
2018-07-14T12:36:52.249Z,35.45
2018-07-14T12:39:21.731Z,36.52
2018-07-14T12:41:51.243Z,35.24
2018-07-14T12:44:20.569Z,34.80
2018-07-14T12:46:50.109Z,35.06
2018-07-14T12:49:19.677Z,34.79
2018-07-14T12:51:49.195Z,35.44
2018-07-14T12:54:18.599Z,37.04
2018-07-14T12:56:47.976Z,38.00
2018-07-14T12:59:17.632Z,37.78
2018-07-14T13:01:47.052Z,38.75
2018-07-14T13:04:16.455Z,38.12
2018-07-14T13:06:45.924Z,39.07
2018-07-14T13:09:15.518Z,38.67
2018-07-14T13:11:45.232Z,38.32
2018-07-14T13:14:14.730Z,37.89
2018-07-14T13:16:44.202Z,38.09
2018-07-14T13:19:13.610Z,37.92
2018-07-14T13:21:43.056Z,36.63
2018-07-14T13:24:12.464Z,36.30
2018-07-14T13:26:41.876Z,36.47
2018-07-14T13:29:11.300Z,35.99
2018-07-14T13:31:40.803Z,36.12
2018-07-14T13:34:10.538Z,36.05
2018-07-14T13:36:39.963Z,36.70
2018-07-14T13:39:09.279Z,36.89
2018-07-14T13:41:38.660Z,35.63
2018-07-14T13:44:08.053Z,36.05
2018-07-14T13:46:37.398Z,35.00
2018-07-14T13:49:06.806Z,35.95
2018-07-14T13:51:36.207Z,35.82
2018-07-14T13:54:05.554Z,37.37
2018-07-14T13:56:35.422Z,38.22
2018-07-14T13:59:04.733Z,38.19
2018-07-14T14:01:34.139Z,37.49
2018-07-14T14:04:03.515Z,36.85
2018-07-14T14:06:32.925Z,35.51
2018-07-14T14:09:02.403Z,36.14
2018-07-14T14:11:31.804Z,37.12
2018-07-14T14:14:01.233Z,36.35
2018-07-14T14:16:30.470Z,36.96
2018-07-14T14:19:00.165Z,36.52
2018-07-14T14:21:29.615Z,37.07
2018-07-14T14:23:59.010Z,37.11
2018-07-14T14:26:28.884Z,36.77
2018-07-14T14:28:58.154Z,36.86
2018-07-14T14:31:27.473Z,36.33
2018-07-14T14:33:56.847Z,37.96
2018-07-14T14:36:26.155Z,37.99
2018-07-14T14:38:55.489Z,38.44
2018-07-14T14:41:24.911Z,38.20
2018-07-14T14:43:54.161Z,38.05
2018-07-14T14:46:23.487Z,38.04
2018-07-14T14:48:52.854Z,37.92
2018-07-14T14:51:22.199Z,39.65
2018-07-14T14:53:51.514Z,39.44
2018-07-14T14:56:20.796Z,40.63
2018-07-14T14:58:50.630Z,40.02
2018-07-14T15:01:19.927Z,40.46
2018-07-14T15:03:49.842Z,40.25
2018-07-14T15:06:19.193Z,41.01
2018-07-14T15:08:48.431Z,42.09
2018-07-14T15:11:17.948Z,42.80
2018-07-14T15:13:47.291Z,41.75
2018-07-14T15:16:16.590Z,41.10
2018-07-14T15:18:45.930Z,40.86
2018-07-14T15:21:15.222Z,41.87
2018-07-14T15:23:44.551Z,40.71
2018-07-14T15:26:13.999Z,41.78
2018-07-14T15:28:43.367Z,41.38
2018-07-14T15:31:12.708Z,41.14
2018-07-14T15:33:42.141Z,41.95
2018-07-14T15:36:11.469Z,41.81
2018-07-14T15:38:40.774Z,41.29
2018-07-14T15:41:09.976Z,42.30
2018-07-14T15:43:39.301Z,41.95
2018-07-14T15:46:08.622Z,40.74
2018-07-14T15:48:38.352Z,41.70
2018-07-14T15:51:07.685Z,41.40
2018-07-14T15:53:36.953Z,40.85
2018-07-14T15:56:06.955Z,41.79
2018-07-14T15:58:36.270Z,41.96
2018-07-14T16:01:05.638Z,41.96
2018-07-14T16:03:34.990Z,41.88
2018-07-14T16:06:04.379Z,41.91
2018-07-14T16:08:33.707Z,41.95
2018-07-14T16:11:03.627Z,41.48
2018-07-14T16:13:32.907Z,40.84
2018-07-14T16:16:02.245Z,41.26
2018-07-14T16:18:31.606Z,40.55
2018-07-14T16:21:00.882Z,41.45
2018-07-14T16:23:30.194Z,41.39
2018-07-14T16:25:59.547Z,41.11
2018-07-14T16:28:28.906Z,41.37
2018-07-14T16:30:58.209Z,41.15
2018-07-14T16:33:27.808Z,40.93
2018-07-14T16:35:57.137Z,41.17
2018-07-14T16:38:26.428Z,41.51
2018-07-14T16:40:55.773Z,41.25
2018-07-14T16:43:25.093Z,40.49
2018-07-14T16:45:54.500Z,40.83
2018-07-14T16:48:23.969Z,40.98
2018-07-14T16:50:53.526Z,40.50
2018-07-14T16:53:22.842Z,40.82
2018-07-14T16:55:52.480Z,40.78
2018-07-14T16:58:21.749Z,41.75
2018-07-14T17:00:51.029Z,40.79
2018-07-14T17:03:20.589Z,41.45
2018-07-14T17:05:49.958Z,40.75
2018-07-14T17:08:20.111Z,41.39
2018-07-14T17:10:49.442Z,41.04
2018-07-14T17:13:18.915Z,41.60
2018-07-14T17:15:48.352Z,41.35
2018-07-14T17:18:17.755Z,41.98
2018-07-14T17:20:47.325Z,41.21
2018-07-14T17:23:16.606Z,41.13
2018-07-14T17:25:45.935Z,41.45
2018-07-14T17:28:15.256Z,41.48
2018-07-14T17:30:44.666Z,40.65
2018-07-14T17:33:13.978Z,40.98
2018-07-14T17:35:47.680Z,41.57
2018-07-14T17:38:17.102Z,41.73
2018-07-14T17:40:46.510Z,41.55
2018-07-14T17:43:15.912Z,41.44
2018-07-14T17:45:45.342Z,42.69
2018-07-14T17:48:14.727Z,42.13
2018-07-14T17:50:44.253Z,43.69
2018-07-14T17:53:16.486Z,42.80
2018-07-14T17:55:45.887Z,43.17
2018-07-14T17:58:15.362Z,42.96
2018-07-14T18:00:44.610Z,42.98
2018-07-14T18:03:13.961Z,42.83
2018-07-14T18:05:43.407Z,43.20
2018-07-14T18:08:12.887Z,43.00
2018-07-14T18:10:42.261Z,42.34
2018-07-14T18:13:11.782Z,42.73
2018-07-14T18:15:41.175Z,42.80
2018-07-14T18:18:10.533Z,43.59
2018-07-14T18:20:40.608Z,43.91
2018-07-14T18:23:10.062Z,44.04
2018-07-14T18:25:39.547Z,43.22
2018-07-14T18:28:08.902Z,42.94
2018-07-14T18:30:38.263Z,43.29
2018-07-14T18:33:07.646Z,42.99
2018-07-14T18:35:37.245Z,43.21
2018-07-14T18:38:06.695Z,43.43
2018-07-14T18:40:36.070Z,42.52
2018-07-14T18:43:05.736Z,42.90
2018-07-14T18:45:35.130Z,42.78
2018-07-14T18:48:04.512Z,43.42
2018-07-14T18:50:33.834Z,43.17
2018-07-14T18:53:03.133Z,42.78
2018-07-14T18:55:32.512Z,42.21
2018-07-14T18:58:01.855Z,42.85
2018-07-14T19:00:31.168Z,43.65
2018-07-14T19:03:00.494Z,43.53
2018-07-14T19:05:30.256Z,43.41
2018-07-14T19:07:59.597Z,44.03
2018-07-14T19:10:28.959Z,42.93
2018-07-14T19:12:58.329Z,43.07
2018-07-14T19:15:27.855Z,43.05
2018-07-14T19:17:57.236Z,43.74
2018-07-14T19:20:26.551Z,43.68
2018-07-14T19:22:55.853Z,43.44
2018-07-14T19:25:25.152Z,44.06
2018-07-14T19:27:54.670Z,44.54
2018-07-14T19:30:24.022Z,45.24
2018-07-14T19:32:53.358Z,44.76
2018-07-14T19:35:22.722Z,44.86
2018-07-14T19:37:52.317Z,45.46
2018-07-14T19:40:21.605Z,44.79
2018-07-14T19:42:51.047Z,45.80
2018-07-14T19:45:20.333Z,45.60
2018-07-14T19:47:49.786Z,45.74
2018-07-14T19:50:25.445Z,45.58
2018-07-14T19:52:54.760Z,45.33
2018-07-14T19:55:24.098Z,45.11
2018-07-14T19:57:53.438Z,45.42
2018-07-14T20:00:22.873Z,46.24
2018-07-14T20:02:52.194Z,45.66
2018-07-14T20:05:21.514Z,45.84
2018-07-14T20:07:50.894Z,46.49
2018-07-14T20:10:19.947Z,46.70
2018-07-14T20:12:49.819Z,46.25
2018-07-14T20:15:19.162Z,46.56
2018-07-14T20:17:48.538Z,46.86
2018-07-14T20:20:17.865Z,46.64
2018-07-14T20:22:47.198Z,47.50
2018-07-14T20:25:16.723Z,47.45
2018-07-14T20:27:46.052Z,46.83
2018-07-14T20:30:15.360Z,46.71
2018-07-14T20:32:44.714Z,47.35
2018-07-14T20:35:14.262Z,47.25
2018-07-14T20:37:43.604Z,47.62
2018-07-14T20:40:12.972Z,47.39
2018-07-14T20:42:42.335Z,47.35
2018-07-14T20:45:11.678Z,47.45
2018-07-14T20:47:40.970Z,47.60
2018-07-14T20:50:10.351Z,47.78
2018-07-14T20:52:39.876Z,48.20
2018-07-14T20:55:09.210Z,47.70
2018-07-14T20:57:38.605Z,48.14
2018-07-14T21:00:08.013Z,47.43
2018-07-14T21:02:37.413Z,47.48
2018-07-14T21:05:06.813Z,47.47
2018-07-14T21:07:36.151Z,46.82
2018-07-14T21:10:05.527Z,47.89
2018-07-14T21:12:35.000Z,47.32
2018-07-14T21:15:04.236Z,46.95
2018-07-14T21:17:33.532Z,47.38
2018-07-14T21:20:03.430Z,47.36
2018-07-14T21:22:32.819Z,46.92
2018-07-14T21:25:02.136Z,47.31
2018-07-14T21:27:31.519Z,47.96
2018-07-14T21:30:00.899Z,47.31
2018-07-14T21:32:30.035Z,47.41
2018-07-14T21:34:59.437Z,47.87
2018-07-14T21:37:28.755Z,47.79
2018-07-14T21:39:58.155Z,48.19
2018-07-14T21:42:27.752Z,48.09
2018-07-14T21:44:57.149Z,48.67
2018-07-14T21:47:26.581Z,49.44
2018-07-14T21:49:55.961Z,50.22
2018-07-14T21:52:25.318Z,50.97
2018-07-14T21:54:54.811Z,51.52
2018-07-14T21:57:24.391Z,51.21
2018-07-14T21:59:54.050Z,51.86
2018-07-14T22:02:23.418Z,52.45
2018-07-14T22:04:52.882Z,52.61
2018-07-14T22:07:22.263Z,53.05
2018-07-14T22:09:51.315Z,52.94
2018-07-14T22:12:20.749Z,53.39
2018-07-14T22:14:50.116Z,53.91
2018-07-14T22:17:19.382Z,53.03
2018-07-14T22:19:50.943Z,53.59
2018-07-14T22:22:20.318Z,52.93
2018-07-14T22:24:49.602Z,53.01
2018-07-14T22:27:19.327Z,54.02
2018-07-14T22:29:48.695Z,53.17
2018-07-14T22:32:18.044Z,53.80
2018-07-14T22:34:47.487Z,53.32
2018-07-14T22:37:16.818Z,52.90
2018-07-14T22:39:46.158Z,53.32
2018-07-14T22:42:15.518Z,53.39
2018-07-14T22:44:44.873Z,54.38
2018-07-14T22:47:15.246Z,54.92
2018-07-14T22:49:44.887Z,55.50
2018-07-14T22:52:14.188Z,54.87
2018-07-14T22:54:43.560Z,56.07
2018-07-14T22:57:12.935Z,56.09
2018-07-14T22:59:42.249Z,55.58
2018-07-14T23:02:11.531Z,55.74
2018-07-14T23:04:41.017Z,55.95
2018-07-14T23:07:10.325Z,56.10
2018-07-14T23:09:39.700Z,57.25
2018-07-14T23:12:09.371Z,56.76
2018-07-14T23:14:38.994Z,57.11
2018-07-14T23:17:08.291Z,56.98
2018-07-14T23:19:37.658Z,57.57
2018-07-14T23:22:07.116Z,58.58
2018-07-14T23:24:36.460Z,58.43
2018-07-14T23:27:05.759Z,58.31
2018-07-14T23:29:35.137Z,58.75
2018-07-14T23:32:04.504Z,58.21
2018-07-14T23:34:34.030Z,59.05
2018-07-14T23:37:03.371Z,59.08
2018-07-14T23:39:32.790Z,59.31
2018-07-14T23:42:03.216Z,58.80
2018-07-14T23:44:32.499Z,59.55
2018-07-14T23:47:01.876Z,59.34
2018-07-14T23:49:31.195Z,59.80
2018-07-14T23:52:00.463Z,60.07
2018-07-14T23:54:29.767Z,59.47
2018-07-14T23:56:59.261Z,59.38
2018-07-14T23:59:28.592Z,60.17
